createdAt,value
2017-11-18T00:00:54.488Z,0
2017-11-18T00:01:55.211Z,0
2017-11-18T00:02:55.999Z,0
2017-11-18T00:03:56.777Z,0
2017-11-18T00:04:57.486Z,0
2017-11-18T00:05:58.344Z,0
2017-11-18T00:06:59.059Z,0
2017-11-18T00:07:59.784Z,0
2017-11-18T00:09:00.570Z,0
2017-11-18T00:10:01.364Z,0
2017-11-18T00:11:02.226Z,0
2017-11-18T00:12:03.024Z,0
2017-11-18T00:13:03.810Z,0
2017-11-18T00:14:04.586Z,0
2017-11-18T00:15:05.319Z,0
2017-11-18T00:16:06.109Z,0
2017-11-18T00:17:06.837Z,0
2017-11-18T00:18:07.644Z,0
2017-11-18T00:19:08.420Z,0
2017-11-18T00:20:09.145Z,0
2017-11-18T00:21:09.874Z,0
2017-11-18T00:22:10.595Z,0
2017-11-18T00:23:11.325Z,0
2017-11-18T00:24:12.050Z,0
2017-11-18T00:25:12.711Z,0
2017-11-18T00:26:13.485Z,0
2017-11-18T00:27:14.270Z,0
2017-11-18T00:28:15.079Z,0
2017-11-18T00:29:15.811Z,0
2017-11-18T00:30:16.597Z,0
2017-11-18T00:31:17.487Z,0
2017-11-18T00:32:18.210Z,0
2017-11-18T00:33:18.918Z,0
2017-11-18T00:34:19.686Z,0
2017-11-18T00:35:20.408Z,0
2017-11-18T00:36:21.132Z,0
2017-11-18T00:37:21.897Z,0
2017-11-18T00:38:22.611Z,0
2017-11-18T00:39:23.343Z,0
2017-11-18T00:40:24.079Z,0
2017-11-18T00:41:24.797Z,0
2017-11-18T00:42:25.523Z,0
2017-11-18T00:43:26.319Z,0
2017-11-18T00:44:27.085Z,0
2017-11-18T00:45:27.803Z,0
2017-11-18T00:46:28.624Z,0
2017-11-18T00:47:29.346Z,0
2017-11-18T00:48:30.134Z,0
2017-11-18T00:49:30.889Z,0
2017-11-18T00:50:31.656Z,0
2017-11-18T00:51:32.479Z,0
2017-11-18T00:52:33.189Z,0
2017-11-18T00:53:33.910Z,0
2017-11-18T00:54:34.686Z,0
2017-11-18T00:55:35.471Z,0
2017-11-18T00:56:36.200Z,0
2017-11-18T00:57:36.962Z,0
2017-11-18T00:58:37.859Z,0
2017-11-18T00:59:38.547Z,0
2017-11-18T01:00:39.325Z,0
2017-11-18T01:01:40.039Z,0
2017-11-18T01:02:40.768Z,0
2017-11-18T01:03:41.590Z,0
2017-11-18T01:04:42.308Z,0
2017-11-18T01:05:43.033Z,0
2017-11-18T01:06:43.804Z,0
2017-11-18T01:07:44.528Z,0
2017-11-18T01:08:45.245Z,0
2017-11-18T01:09:45.960Z,0
2017-11-18T01:10:46.772Z,0
2017-11-18T01:11:47.517Z,0
2017-11-18T01:12:48.228Z,0
2017-11-18T01:13:48.934Z,0
2017-11-18T01:14:49.648Z,0
2017-11-18T01:15:50.455Z,0
2017-11-18T01:16:51.131Z,0
2017-11-18T01:17:51.894Z,0
2017-11-18T01:18:52.677Z,0
2017-11-18T01:19:53.390Z,0
2017-11-18T01:20:54.184Z,0
2017-11-18T01:21:54.938Z,0
2017-11-18T01:22:55.727Z,0
2017-11-18T01:23:56.439Z,0
2017-11-18T01:24:57.168Z,0
2017-11-18T01:25:57.888Z,0
2017-11-18T01:26:58.593Z,0
2017-11-18T01:27:59.354Z,0
2017-11-18T01:29:00.070Z,0
2017-11-18T01:30:00.790Z,0
2017-11-18T01:31:01.569Z,0
2017-11-18T01:32:02.304Z,0
2017-11-18T01:33:03.156Z,0
2017-11-18T01:34:03.883Z,0
2017-11-18T01:35:04.691Z,0
2017-11-18T01:36:05.465Z,0
2017-11-18T01:37:06.202Z,0
2017-11-18T01:38:07.069Z,0
2017-11-18T01:39:07.875Z,0
2017-11-18T01:40:08.653Z,0
2017-11-18T01:41:09.360Z,0
2017-11-18T01:42:10.081Z,0
2017-11-18T01:43:10.901Z,0
2017-11-18T01:44:11.699Z,0
2017-11-18T01:45:12.480Z,0
2017-11-18T01:46:13.276Z,0
2017-11-18T01:47:13.974Z,0
2017-11-18T01:48:14.749Z,0
2017-11-18T01:49:15.559Z,0
2017-11-18T01:50:16.355Z,0
2017-11-18T01:51:17.120Z,0
2017-11-18T01:52:17.912Z,0
2017-11-18T01:53:18.625Z,0
2017-11-18T01:54:19.336Z,0
2017-11-18T01:55:20.048Z,0
2017-11-18T01:56:20.867Z,0
2017-11-18T01:57:21.588Z,0
2017-11-18T01:58:22.392Z,0
2017-11-18T01:59:23.115Z,0
2017-11-18T02:00:23.847Z,0
2017-11-18T02:01:24.612Z,0
2017-11-18T02:02:25.475Z,0
2017-11-18T02:03:26.196Z,0
2017-11-18T02:04:26.915Z,0
2017-11-18T02:05:27.651Z,0
2017-11-18T02:06:28.450Z,0
2017-11-18T02:07:29.269Z,0
2017-11-18T02:08:29.989Z,0
2017-11-18T02:09:30.718Z,0
2017-11-18T02:10:31.433Z,0
2017-11-18T02:11:32.167Z,0
2017-11-18T02:12:32.928Z,0
2017-11-18T02:13:33.655Z,0
2017-11-18T02:14:34.450Z,0
2017-11-18T02:15:35.251Z,0
2017-11-18T02:16:35.979Z,0
2017-11-18T02:17:36.693Z,0
2017-11-18T02:18:37.597Z,0
2017-11-18T02:19:38.326Z,0
2017-11-18T02:20:39.117Z,0
2017-11-18T02:21:39.901Z,0
2017-11-18T02:22:40.618Z,0
2017-11-18T02:23:41.329Z,0
2017-11-18T02:24:42.054Z,0
2017-11-18T02:25:42.760Z,0
2017-11-18T02:26:43.482Z,0
2017-11-18T02:27:44.254Z,0
2017-11-18T02:28:44.978Z,0
2017-11-18T02:29:45.748Z,0
2017-11-18T02:30:46.622Z,0
2017-11-18T02:31:47.338Z,0
2017-11-18T02:32:48.133Z,0
2017-11-18T02:33:48.864Z,0
2017-11-18T02:34:49.585Z,0
2017-11-18T02:35:50.393Z,0
2017-11-18T02:36:51.290Z,0
2017-11-18T02:37:51.999Z,0
2017-11-18T02:38:52.788Z,0
2017-11-18T02:39:53.511Z,0
2017-11-18T02:40:54.252Z,0
2017-11-18T02:41:54.965Z,0
2017-11-18T02:42:55.735Z,0
2017-11-18T02:43:56.455Z,0
2017-11-18T02:44:57.176Z,0
2017-11-18T02:45:57.888Z,0
2017-11-18T02:46:58.646Z,0
2017-11-18T02:47:59.421Z,0
2017-11-18T02:49:00.145Z,0
2017-11-18T02:50:00.875Z,0
2017-11-18T02:51:01.681Z,0
2017-11-18T02:52:02.469Z,0
2017-11-18T02:53:03.331Z,0
2017-11-18T02:54:04.100Z,0
2017-11-18T02:55:04.806Z,0
2017-11-18T02:56:05.590Z,0
2017-11-18T02:57:06.347Z,0
2017-11-18T02:58:07.134Z,0
2017-11-18T02:59:07.859Z,0
2017-11-18T03:00:08.691Z,0
2017-11-18T03:01:09.482Z,0
2017-11-18T03:02:10.209Z,0
2017-11-18T03:03:10.924Z,0
2017-11-18T03:04:11.635Z,0
2017-11-18T03:05:12.461Z,0
2017-11-18T03:06:13.258Z,0
2017-11-18T03:07:13.969Z,0
2017-11-18T03:08:14.689Z,0
2017-11-18T03:09:15.457Z,0
2017-11-18T03:10:16.345Z,0
2017-11-18T03:11:17.075Z,0
2017-11-18T03:12:17.864Z,0
2017-11-18T03:13:18.633Z,0
2017-11-18T03:14:19.359Z,0
2017-11-18T03:15:20.066Z,0
2017-11-18T03:16:20.825Z,0
2017-11-18T03:17:21.549Z,0
2017-11-18T03:18:22.256Z,0
2017-11-18T03:19:23.042Z,0
2017-11-18T03:20:23.760Z,0
2017-11-18T03:21:24.575Z,0
2017-11-18T03:22:25.305Z,0
2017-11-18T03:23:26.091Z,0
2017-11-18T03:24:26.810Z,0
2017-11-18T03:25:27.529Z,0
2017-11-18T03:26:28.353Z,0
2017-11-18T03:27:29.092Z,0
2017-11-18T03:28:29.877Z,0
2017-11-18T03:29:30.667Z,0
2017-11-18T03:30:31.402Z,0
2017-11-18T03:31:32.216Z,0
2017-11-18T03:32:32.940Z,0
2017-11-18T03:33:33.669Z,0
2017-11-18T03:34:34.440Z,0
2017-11-18T03:35:35.208Z,0
2017-11-18T03:36:35.999Z,0
2017-11-18T03:37:36.722Z,0
2017-11-18T03:38:37.440Z,0
2017-11-18T03:39:38.170Z,0
2017-11-18T03:40:38.886Z,0
2017-11-18T03:41:39.665Z,0
2017-11-18T03:42:40.442Z,0
2017-11-18T03:43:41.131Z,0
2017-11-18T03:44:41.903Z,0
2017-11-18T03:45:42.680Z,0
2017-11-18T03:46:43.464Z,0
2017-11-18T03:47:44.238Z,0
2017-11-18T03:48:45.032Z,0
2017-11-18T03:49:45.852Z,0
2017-11-18T03:50:46.625Z,0
2017-11-18T03:51:47.343Z,0
2017-11-18T03:52:48.113Z,0
2017-11-18T03:53:48.846Z,0
2017-11-18T03:54:49.643Z,0
2017-11-18T03:55:50.420Z,0
2017-11-18T03:56:51.200Z,0
2017-11-18T03:57:51.986Z,0
2017-11-18T03:58:52.712Z,0
2017-11-18T03:59:53.538Z,0
2017-11-18T04:00:54.326Z,0
2017-11-18T04:01:55.105Z,0
2017-11-18T04:02:55.812Z,0
2017-11-18T04:03:56.529Z,0
2017-11-18T04:04:57.248Z,0
2017-11-18T04:05:58.039Z,0
2017-11-18T04:06:58.810Z,0
2017-11-18T04:07:59.516Z,0
2017-11-18T04:09:00.246Z,0
2017-11-18T04:10:01.082Z,0
2017-11-18T04:11:01.809Z,0
2017-11-18T04:12:02.600Z,0
2017-11-18T04:13:03.312Z,0
2017-11-18T04:14:04.036Z,0
2017-11-18T04:15:04.742Z,0
2017-11-18T04:16:05.468Z,0
2017-11-18T04:17:06.194Z,0
2017-11-18T04:18:06.917Z,0
2017-11-18T04:19:07.622Z,0
2017-11-18T04:20:08.386Z,0
2017-11-18T04:21:09.101Z,0
2017-11-18T04:22:09.814Z,0
2017-11-18T04:23:10.527Z,0
2017-11-18T04:24:11.292Z,0
2017-11-18T04:25:12.012Z,0
2017-11-18T04:26:12.861Z,0
2017-11-18T04:27:13.588Z,0
2017-11-18T04:28:14.376Z,0
2017-11-18T04:29:15.100Z,0
2017-11-18T04:30:15.825Z,0
2017-11-18T04:31:16.586Z,0
2017-11-18T04:32:17.347Z,0
2017-11-18T04:33:18.141Z,0
2017-11-18T04:34:18.929Z,0
2017-11-18T04:35:19.642Z,0
2017-11-18T04:36:20.412Z,0
2017-11-18T04:37:21.128Z,0
2017-11-18T04:38:21.937Z,0
2017-11-18T04:39:22.671Z,0
2017-11-18T04:40:23.394Z,0
2017-11-18T04:41:24.228Z,0
2017-11-18T04:42:24.935Z,0
2017-11-18T04:43:25.590Z,0
2017-11-18T04:44:26.311Z,0
2017-11-18T04:45:27.048Z,0
2017-11-18T04:46:27.888Z,0
2017-11-18T04:47:28.654Z,0
2017-11-18T04:48:29.457Z,0
2017-11-18T04:49:30.259Z,0
2017-11-18T04:50:31.067Z,0
2017-11-18T04:51:31.798Z,0
2017-11-18T04:52:32.574Z,0
2017-11-18T04:53:33.333Z,0
2017-11-18T04:54:34.058Z,0
2017-11-18T04:55:34.847Z,0
2017-11-18T04:56:35.643Z,0
2017-11-18T04:57:36.440Z,0
2017-11-18T04:58:37.206Z,0
2017-11-18T04:59:37.999Z,0
2017-11-18T05:00:38.851Z,0
2017-11-18T05:01:39.593Z,0
2017-11-18T05:02:40.300Z,0
2017-11-18T05:03:41.086Z,0
2017-11-18T05:04:41.798Z,0
2017-11-18T05:05:42.642Z,0
2017-11-18T05:06:43.352Z,0
2017-11-18T05:07:44.085Z,0
2017-11-18T05:08:44.868Z,0
2017-11-18T05:09:45.633Z,0
2017-11-18T05:10:46.482Z,0
2017-11-18T05:11:47.242Z,0
2017-11-18T05:12:47.955Z,0
2017-11-18T05:13:48.683Z,0
2017-11-18T05:14:49.398Z,0
2017-11-18T05:15:50.196Z,0
2017-11-18T05:16:50.997Z,0
2017-11-18T05:17:51.783Z,0
2017-11-18T05:18:52.558Z,0
2017-11-18T05:19:53.312Z,0
2017-11-18T05:20:54.022Z,0
2017-11-18T05:21:54.812Z,0
2017-11-18T05:22:55.514Z,0
2017-11-18T05:23:56.243Z,0
2017-11-18T05:24:56.956Z,0
2017-11-18T05:25:57.733Z,0
2017-11-18T05:26:58.578Z,0
2017-11-18T05:27:59.346Z,0
2017-11-18T05:29:00.064Z,0
2017-11-18T05:30:00.807Z,0
2017-11-18T05:31:01.533Z,0
2017-11-18T05:32:02.371Z,0
2017-11-18T05:33:03.086Z,0
2017-11-18T05:34:03.802Z,0
2017-11-18T05:35:04.530Z,0
2017-11-18T05:36:05.302Z,0
2017-11-18T05:37:06.107Z,0
2017-11-18T05:38:06.896Z,0
2017-11-18T05:39:07.622Z,0
2017-11-18T05:40:08.340Z,0
2017-11-18T05:41:09.070Z,0
2017-11-18T05:42:09.844Z,0
2017-11-18T05:43:10.595Z,0
2017-11-18T05:44:11.371Z,0
2017-11-18T05:45:12.123Z,0
2017-11-18T05:46:12.931Z,0
2017-11-18T05:47:13.792Z,0
2017-11-18T05:48:14.506Z,0
2017-11-18T05:49:15.296Z,0
2017-11-18T05:50:16.057Z,0
2017-11-18T05:51:16.763Z,0
2017-11-18T05:52:17.593Z,0
2017-11-18T05:53:18.355Z,0
2017-11-18T05:54:19.079Z,0
2017-11-18T05:55:19.801Z,0
2017-11-18T05:56:20.596Z,0
2017-11-18T05:57:21.330Z,0
2017-11-18T05:58:22.085Z,0
2017-11-18T05:59:22.913Z,0
2017-11-18T06:00:23.628Z,0
2017-11-18T06:01:24.345Z,0
2017-11-18T06:02:25.054Z,0
2017-11-18T06:03:25.867Z,0
2017-11-18T06:04:26.616Z,0
2017-11-18T06:05:27.382Z,0
2017-11-18T06:06:28.110Z,0
2017-11-18T06:07:28.892Z,0
2017-11-18T06:08:29.622Z,0
2017-11-18T06:09:30.335Z,0
2017-11-18T06:10:31.128Z,0
2017-11-18T06:11:31.864Z,0
2017-11-18T06:12:32.662Z,0
2017-11-18T06:13:33.390Z,0
2017-11-18T06:14:34.169Z,0
2017-11-18T06:15:34.966Z,0
2017-11-18T06:16:35.725Z,0
2017-11-18T06:17:36.437Z,0
2017-11-18T06:18:37.168Z,0
2017-11-18T06:19:37.891Z,0
2017-11-18T06:20:38.663Z,0
2017-11-18T06:21:39.372Z,0
2017-11-18T06:22:40.092Z,0
2017-11-18T06:23:40.878Z,0
2017-11-18T06:24:41.680Z,0
2017-11-18T06:25:42.406Z,0
2017-11-18T06:26:43.119Z,0
2017-11-18T06:27:43.906Z,0
2017-11-18T06:28:44.611Z,0
2017-11-18T06:29:45.336Z,0
2017-11-18T06:30:46.162Z,0
2017-11-18T06:31:46.971Z,0
2017-11-18T06:32:47.702Z,0
2017-11-18T06:33:48.471Z,0
2017-11-18T06:34:49.192Z,0
2017-11-18T06:35:50.038Z,0
2017-11-18T06:36:50.821Z,0
2017-11-18T06:37:51.552Z,0
2017-11-18T06:38:52.277Z,0
2017-11-18T06:39:53.017Z,0
2017-11-18T06:40:53.880Z,0
2017-11-18T06:41:54.643Z,0
2017-11-18T06:42:55.443Z,0
2017-11-18T06:43:56.161Z,0
2017-11-18T06:44:56.885Z,0
2017-11-18T06:45:57.694Z,0
2017-11-18T06:46:58.465Z,0
2017-11-18T06:47:59.188Z,0
2017-11-18T06:48:59.902Z,0
2017-11-18T06:50:00.621Z,0
2017-11-18T06:51:01.397Z,0
2017-11-18T06:52:02.115Z,5
2017-11-18T06:53:02.853Z,5
2017-11-18T06:54:03.586Z,5
2017-11-18T06:55:04.302Z,5
2017-11-18T06:56:05.076Z,5
2017-11-18T06:57:05.875Z,5
2017-11-18T06:58:06.592Z,5
2017-11-18T06:59:07.325Z,5
2017-11-18T07:00:08.043Z,5
2017-11-18T07:01:08.772Z,5
2017-11-18T07:02:09.497Z,11
2017-11-18T07:03:10.222Z,11
2017-11-18T07:04:10.996Z,11
2017-11-18T07:05:11.712Z,11
2017-11-18T07:06:12.440Z,11
2017-11-18T07:07:13.191Z,11
2017-11-18T07:08:13.981Z,11
2017-11-18T07:09:14.781Z,11
2017-11-18T07:10:15.623Z,11
2017-11-18T07:11:16.334Z,11
2017-11-18T07:12:17.143Z,11
2017-11-18T07:13:17.876Z,11
2017-11-18T07:14:18.604Z,11
2017-11-18T07:15:19.406Z,11
2017-11-18T07:16:20.137Z,11
2017-11-18T07:17:20.853Z,11
2017-11-18T07:18:21.581Z,11
2017-11-18T07:19:22.363Z,11
2017-11-18T07:20:23.191Z,11
2017-11-18T07:21:23.917Z,11
2017-11-18T07:22:24.721Z,11
2017-11-18T07:23:25.453Z,16
2017-11-18T07:24:26.234Z,16
2017-11-18T07:25:26.960Z,16
2017-11-18T07:26:27.683Z,16
2017-11-18T07:27:28.400Z,16
2017-11-18T07:28:29.157Z,16
2017-11-18T07:29:29.898Z,16
2017-11-18T07:30:30.742Z,16
2017-11-18T07:31:31.462Z,22
2017-11-18T07:32:32.191Z,22
2017-11-18T07:33:32.995Z,22
2017-11-18T07:34:33.741Z,28
2017-11-18T07:35:34.605Z,28
2017-11-18T07:36:35.332Z,22
2017-11-18T07:37:36.067Z,28
2017-11-18T07:38:36.788Z,22
2017-11-18T07:39:37.535Z,22
2017-11-18T07:40:38.346Z,22
2017-11-18T07:41:39.156Z,22
2017-11-18T07:42:39.876Z,22
2017-11-18T07:43:40.587Z,22
2017-11-18T07:44:41.398Z,28
2017-11-18T07:45:42.235Z,28
2017-11-18T07:46:43.026Z,28
2017-11-18T07:47:43.732Z,33
2017-11-18T07:48:44.458Z,39
2017-11-18T07:49:45.250Z,39
2017-11-18T07:50:45.985Z,45
2017-11-18T07:51:46.743Z,45
2017-11-18T07:52:47.547Z,45
2017-11-18T07:53:48.388Z,50
2017-11-18T07:54:49.180Z,50
2017-11-18T07:55:49.901Z,50
2017-11-18T07:56:50.638Z,50
2017-11-18T07:57:51.369Z,50
2017-11-18T07:58:52.145Z,56
2017-11-18T07:59:52.896Z,50
2017-11-18T08:00:53.631Z,45
2017-11-18T08:01:54.354Z,45
2017-11-18T08:02:55.154Z,50
2017-11-18T08:03:55.936Z,50
2017-11-18T08:04:56.696Z,50
2017-11-18T08:05:57.436Z,56
2017-11-18T08:06:58.178Z,56
2017-11-18T08:07:58.956Z,56
2017-11-18T08:08:59.701Z,56
2017-11-18T08:10:00.472Z,67
2017-11-18T08:11:01.197Z,73
2017-11-18T08:12:01.908Z,78
2017-11-18T08:13:02.631Z,84
2017-11-18T08:14:03.410Z,90
2017-11-18T08:15:04.270Z,95
2017-11-18T08:16:05.011Z,95
2017-11-18T08:17:05.808Z,90
2017-11-18T08:18:06.572Z,78
2017-11-18T08:19:07.358Z,73
2017-11-18T08:20:08.233Z,78
2017-11-18T08:21:08.963Z,90
2017-11-18T08:22:09.685Z,95
2017-11-18T08:23:10.420Z,101
2017-11-18T08:24:11.131Z,95
2017-11-18T08:25:11.868Z,101
2017-11-18T08:26:12.722Z,95
2017-11-18T08:27:13.446Z,95
2017-11-18T08:28:14.303Z,95
2017-11-18T08:29:15.108Z,101
2017-11-18T08:30:15.868Z,106
2017-11-18T08:31:16.653Z,112
2017-11-18T08:32:17.466Z,123
2017-11-18T08:33:18.289Z,123
2017-11-18T08:34:19.012Z,123
2017-11-18T08:35:19.745Z,112
2017-11-18T08:36:20.415Z,106
2017-11-18T08:37:21.151Z,129
2017-11-18T08:38:21.878Z,157
2017-11-18T08:39:22.676Z,174
2017-11-18T08:40:23.410Z,174
2017-11-18T08:41:24.200Z,174
2017-11-18T08:42:24.925Z,157
2017-11-18T08:43:25.776Z,157
2017-11-18T08:44:26.510Z,163
2017-11-18T08:45:27.287Z,174
2017-11-18T08:46:28.002Z,174
2017-11-18T08:47:28.807Z,180
2017-11-18T08:48:29.636Z,180
2017-11-18T08:49:30.384Z,185
2017-11-18T08:50:31.100Z,180
2017-11-18T08:51:31.831Z,174
2017-11-18T08:52:32.575Z,174
2017-11-18T08:53:33.335Z,168
2017-11-18T08:54:34.061Z,168
2017-11-18T08:55:34.795Z,163
2017-11-18T08:56:35.518Z,163
2017-11-18T08:57:36.257Z,157
2017-11-18T08:58:37.024Z,168
2017-11-18T08:59:37.747Z,191
2017-11-18T09:00:38.542Z,225
2017-11-18T09:01:39.262Z,236
2017-11-18T09:02:39.991Z,225
2017-11-18T09:03:40.896Z,202
2017-11-18T09:04:41.617Z,196
2017-11-18T09:05:42.343Z,247
2017-11-18T09:06:43.072Z,270
2017-11-18T09:07:43.796Z,281
2017-11-18T09:08:44.576Z,275
2017-11-18T09:09:45.290Z,286
2017-11-18T09:10:46.018Z,275
2017-11-18T09:11:46.734Z,281
2017-11-18T09:12:47.465Z,298
2017-11-18T09:13:48.235Z,298
2017-11-18T09:14:48.954Z,258
2017-11-18T09:15:49.679Z,264
2017-11-18T09:16:50.417Z,309
2017-11-18T09:17:51.235Z,348
2017-11-18T09:18:51.990Z,354
2017-11-18T09:19:52.726Z,326
2017-11-18T09:20:53.547Z,258
2017-11-18T09:21:54.283Z,275
2017-11-18T09:22:55.008Z,320
2017-11-18T09:23:55.779Z,320
2017-11-18T09:24:56.562Z,298
2017-11-18T09:25:57.314Z,315
2017-11-18T09:26:58.089Z,315
2017-11-18T09:27:58.936Z,298
2017-11-18T09:28:59.661Z,230
2017-11-18T09:30:00.399Z,208
2017-11-18T09:31:01.118Z,230
2017-11-18T09:32:01.849Z,264
2017-11-18T09:33:02.635Z,275
2017-11-18T09:34:03.415Z,281
2017-11-18T09:35:04.146Z,270
2017-11-18T09:36:04.862Z,275
2017-11-18T09:37:05.584Z,354
2017-11-18T09:38:06.374Z,354
2017-11-18T09:39:07.163Z,286
2017-11-18T09:40:07.895Z,320
2017-11-18T09:41:08.696Z,382
2017-11-18T09:42:09.417Z,427
2017-11-18T09:43:10.265Z,438
2017-11-18T09:44:10.986Z,421
2017-11-18T09:45:11.712Z,405
2017-11-18T09:46:12.437Z,393
2017-11-18T09:47:13.163Z,309
2017-11-18T09:48:13.885Z,253
2017-11-18T09:49:14.618Z,281
2017-11-18T09:50:15.417Z,275
2017-11-18T09:51:16.139Z,264
2017-11-18T09:52:16.911Z,264
2017-11-18T09:53:17.686Z,281
2017-11-18T09:54:18.416Z,286
2017-11-18T09:55:19.147Z,258
2017-11-18T09:56:19.863Z,270
2017-11-18T09:57:20.634Z,247
2017-11-18T09:58:21.370Z,230
2017-11-18T09:59:22.158Z,230
2017-11-18T10:00:22.960Z,225
2017-11-18T10:01:23.689Z,241
2017-11-18T10:02:24.507Z,253
2017-11-18T10:03:25.324Z,258
2017-11-18T10:04:26.146Z,258
2017-11-18T10:05:26.922Z,247
2017-11-18T10:06:27.647Z,258
2017-11-18T10:07:28.371Z,253
2017-11-18T10:08:29.213Z,264
2017-11-18T10:09:29.992Z,275
2017-11-18T10:10:30.716Z,270
2017-11-18T10:11:31.489Z,292
2017-11-18T10:12:32.256Z,298
2017-11-18T10:13:33.036Z,303
2017-11-18T10:14:33.755Z,303
2017-11-18T10:15:34.473Z,275
2017-11-18T10:16:35.202Z,219
2017-11-18T10:17:35.931Z,236
2017-11-18T10:18:36.751Z,326
2017-11-18T10:19:37.486Z,371
2017-11-18T10:20:38.216Z,371
2017-11-18T10:21:38.945Z,348
2017-11-18T10:22:39.666Z,315
2017-11-18T10:23:40.395Z,298
2017-11-18T10:24:41.135Z,292
2017-11-18T10:25:41.877Z,281
2017-11-18T10:26:42.610Z,258
2017-11-18T10:27:43.396Z,270
2017-11-18T10:28:44.171Z,275
2017-11-18T10:29:44.906Z,275
2017-11-18T10:30:45.628Z,264
2017-11-18T10:31:46.346Z,247
2017-11-18T10:32:47.127Z,247
2017-11-18T10:33:47.911Z,241
2017-11-18T10:34:48.648Z,225
2017-11-18T10:35:49.378Z,230
2017-11-18T10:36:50.104Z,230
2017-11-18T10:37:50.835Z,230
2017-11-18T10:38:51.564Z,241
2017-11-18T10:39:52.385Z,253
2017-11-18T10:40:53.112Z,258
2017-11-18T10:41:53.846Z,264
2017-11-18T10:42:54.581Z,258
2017-11-18T10:43:55.349Z,258
2017-11-18T10:44:56.119Z,264
2017-11-18T10:45:56.847Z,270
2017-11-18T10:46:57.563Z,264
2017-11-18T10:47:58.316Z,264
2017-11-18T10:48:59.104Z,270
2017-11-18T10:49:59.846Z,275
2017-11-18T10:51:00.568Z,298
2017-11-18T10:52:01.350Z,298
2017-11-18T10:53:02.126Z,270
2017-11-18T10:54:02.890Z,258
2017-11-18T10:55:03.692Z,258
2017-11-18T10:56:04.459Z,270
2017-11-18T10:57:05.339Z,286
2017-11-18T10:58:06.095Z,264
2017-11-18T10:59:06.834Z,258
2017-11-18T11:00:07.608Z,264
2017-11-18T11:01:08.444Z,264
2017-11-18T11:02:09.246Z,264
2017-11-18T11:03:10.023Z,281
2017-11-18T11:04:10.759Z,286
2017-11-18T11:05:11.494Z,298
2017-11-18T11:06:12.267Z,315
2017-11-18T11:07:12.998Z,309
2017-11-18T11:08:13.796Z,343
2017-11-18T11:09:14.526Z,371
2017-11-18T11:10:15.263Z,376
2017-11-18T11:11:16.050Z,343
2017-11-18T11:12:16.949Z,320
2017-11-18T11:13:17.682Z,315
2017-11-18T11:14:18.460Z,331
2017-11-18T11:15:19.199Z,343
2017-11-18T11:16:19.977Z,343
2017-11-18T11:17:20.753Z,315
2017-11-18T11:18:21.518Z,303
2017-11-18T11:19:22.322Z,292
2017-11-18T11:20:23.045Z,281
2017-11-18T11:21:23.848Z,292
2017-11-18T11:22:24.633Z,354
2017-11-18T11:23:25.407Z,472
2017-11-18T11:24:26.128Z,472
2017-11-18T11:25:26.912Z,427
2017-11-18T11:26:27.623Z,410
2017-11-18T11:27:28.345Z,438
2017-11-18T11:28:29.197Z,427
2017-11-18T11:29:29.922Z,376
2017-11-18T11:30:30.657Z,393
2017-11-18T11:31:31.396Z,382
2017-11-18T11:32:32.071Z,337
2017-11-18T11:33:32.954Z,360
2017-11-18T11:34:33.743Z,331
2017-11-18T11:35:34.482Z,298
2017-11-18T11:36:35.217Z,303
2017-11-18T11:37:36.030Z,292
2017-11-18T11:38:36.792Z,281
2017-11-18T11:39:37.518Z,270
2017-11-18T11:40:38.286Z,180
2017-11-18T11:41:39.016Z,219
2017-11-18T11:42:39.723Z,281
2017-11-18T11:43:40.535Z,298
2017-11-18T11:44:41.337Z,286
2017-11-18T11:45:42.092Z,258
2017-11-18T11:46:42.915Z,258
2017-11-18T11:47:43.732Z,253
2017-11-18T11:48:44.517Z,180
2017-11-18T11:49:45.318Z,191
2017-11-18T11:50:46.122Z,213
2017-11-18T11:51:46.885Z,219
2017-11-18T11:52:47.670Z,230
2017-11-18T11:53:48.406Z,298
2017-11-18T11:54:49.129Z,264
2017-11-18T11:55:49.849Z,275
2017-11-18T11:56:50.585Z,258
2017-11-18T11:57:51.341Z,241
2017-11-18T11:58:52.071Z,320
2017-11-18T11:59:52.793Z,309
2017-11-18T12:00:53.521Z,286
2017-11-18T12:01:54.250Z,315
2017-11-18T12:02:55.047Z,320
2017-11-18T12:03:55.776Z,337
2017-11-18T12:04:56.504Z,365
2017-11-18T12:05:57.233Z,506
2017-11-18T12:06:57.960Z,326
2017-11-18T12:07:58.776Z,208
2017-11-18T12:08:59.524Z,185
2017-11-18T12:10:00.289Z,123
2017-11-18T12:11:01.017Z,118
2017-11-18T12:12:01.754Z,118
2017-11-18T12:13:02.493Z,140
2017-11-18T12:14:03.217Z,106
2017-11-18T12:15:03.998Z,95
2017-11-18T12:16:04.722Z,95
2017-11-18T12:17:05.446Z,106
2017-11-18T12:18:06.237Z,168
2017-11-18T12:19:07.015Z,225
2017-11-18T12:20:07.809Z,303
2017-11-18T12:21:08.542Z,309
2017-11-18T12:22:09.277Z,264
2017-11-18T12:23:10.059Z,337
2017-11-18T12:24:10.813Z,270
2017-11-18T12:25:11.673Z,371
2017-11-18T12:26:12.456Z,331
2017-11-18T12:27:13.187Z,264
2017-11-18T12:28:13.905Z,241
2017-11-18T12:29:14.716Z,264
2017-11-18T12:30:15.492Z,213
2017-11-18T12:31:16.224Z,157
2017-11-18T12:32:16.950Z,101
2017-11-18T12:33:17.662Z,90
2017-11-18T12:34:18.393Z,101
2017-11-18T12:35:19.121Z,118
2017-11-18T12:36:19.828Z,168
2017-11-18T12:37:20.599Z,168
2017-11-18T12:38:21.322Z,202
2017-11-18T12:39:22.041Z,241
2017-11-18T12:40:22.788Z,225
2017-11-18T12:41:23.560Z,236
2017-11-18T12:42:24.398Z,208
2017-11-18T12:43:25.175Z,315
2017-11-18T12:44:25.905Z,286
2017-11-18T12:45:26.637Z,264
2017-11-18T12:46:27.433Z,225
2017-11-18T12:47:28.304Z,236
2017-11-18T12:48:29.028Z,270
2017-11-18T12:49:29.755Z,213
2017-11-18T12:50:30.470Z,185
2017-11-18T12:51:31.206Z,163
2017-11-18T12:52:32.042Z,202
2017-11-18T12:53:32.764Z,258
2017-11-18T12:54:33.552Z,247
2017-11-18T12:55:34.272Z,219
2017-11-18T12:56:35.003Z,230
2017-11-18T12:57:35.790Z,241
2017-11-18T12:58:36.521Z,253
2017-11-18T12:59:37.245Z,264
2017-11-18T13:00:37.972Z,292
2017-11-18T13:01:38.707Z,286
2017-11-18T13:02:39.520Z,365
2017-11-18T13:03:40.278Z,388
2017-11-18T13:04:41.088Z,348
2017-11-18T13:05:41.845Z,292
2017-11-18T13:06:42.575Z,264
2017-11-18T13:07:43.409Z,236
2017-11-18T13:08:44.129Z,185
2017-11-18T13:09:44.872Z,163
2017-11-18T13:10:45.673Z,180
2017-11-18T13:11:46.414Z,241
2017-11-18T13:12:47.148Z,241
2017-11-18T13:13:47.937Z,219
2017-11-18T13:14:48.741Z,264
2017-11-18T13:15:49.468Z,275
2017-11-18T13:16:50.276Z,292
2017-11-18T13:17:51.052Z,303
2017-11-18T13:18:51.826Z,320
2017-11-18T13:19:52.557Z,253
2017-11-18T13:20:53.273Z,168
2017-11-18T13:21:54.016Z,185
2017-11-18T13:22:54.842Z,230
2017-11-18T13:23:55.562Z,264
2017-11-18T13:24:56.286Z,258
2017-11-18T13:25:57.015Z,298
2017-11-18T13:26:57.759Z,343
2017-11-18T13:27:58.665Z,326
2017-11-18T13:28:59.391Z,253
2017-11-18T13:30:00.207Z,196
2017-11-18T13:31:01.012Z,163
2017-11-18T13:32:01.747Z,140
2017-11-18T13:33:02.520Z,135
2017-11-18T13:34:03.248Z,123
2017-11-18T13:35:04.055Z,146
2017-11-18T13:36:04.788Z,151
2017-11-18T13:37:05.491Z,163
2017-11-18T13:38:06.265Z,180
2017-11-18T13:39:06.992Z,163
2017-11-18T13:40:07.736Z,157
2017-11-18T13:41:08.518Z,129
2017-11-18T13:42:09.321Z,123
2017-11-18T13:43:10.097Z,146
2017-11-18T13:44:10.871Z,163
2017-11-18T13:45:11.679Z,208
2017-11-18T13:46:12.406Z,208
2017-11-18T13:47:13.167Z,185
2017-11-18T13:48:13.988Z,140
2017-11-18T13:49:14.768Z,135
2017-11-18T13:50:15.600Z,101
2017-11-18T13:51:16.366Z,90
2017-11-18T13:52:17.098Z,101
2017-11-18T13:53:17.933Z,106
2017-11-18T13:54:18.717Z,95
2017-11-18T13:55:19.455Z,106
2017-11-18T13:56:20.194Z,95
2017-11-18T13:57:20.981Z,67
2017-11-18T13:58:21.816Z,50
2017-11-18T13:59:22.595Z,45
2017-11-18T14:00:23.365Z,50
2017-11-18T14:01:24.154Z,73
2017-11-18T14:02:24.926Z,61
2017-11-18T14:03:25.758Z,73
2017-11-18T14:04:26.555Z,67
2017-11-18T14:05:27.273Z,78
2017-11-18T14:06:27.999Z,50
2017-11-18T14:07:28.662Z,50
2017-11-18T14:08:29.552Z,45
2017-11-18T14:09:30.297Z,39
2017-11-18T14:10:31.021Z,33
2017-11-18T14:11:31.750Z,22
2017-11-18T14:12:32.461Z,28
2017-11-18T14:13:33.289Z,22
2017-11-18T14:14:34.002Z,28
2017-11-18T14:15:34.739Z,28
2017-11-18T14:16:35.474Z,22
2017-11-18T14:17:36.187Z,22
2017-11-18T14:18:36.916Z,22
2017-11-18T14:19:37.639Z,22
2017-11-18T14:20:38.465Z,22
2017-11-18T14:21:39.186Z,39
2017-11-18T14:22:39.903Z,39
2017-11-18T14:23:40.629Z,39
2017-11-18T14:24:41.353Z,50
2017-11-18T14:25:42.146Z,45
2017-11-18T14:26:42.911Z,56
2017-11-18T14:27:43.673Z,56
2017-11-18T14:28:44.461Z,67
2017-11-18T14:29:45.181Z,73
2017-11-18T14:30:45.936Z,56